アピア の空港の天気 - METARとTAF

ファレオロ国際空港(サモア) ( NSFA / APW ) - サモア アピア
飛行場実況気象(Metar)
観測時間04/25 05:00 WSST (04/24 16:00 UTC)
風向・風速南東 2m/s
視程10km以上
天気現象
少しの雲 雲底高度 610m
全天の8割程度の雲 雲底高度 5180m
気温25℃
湿度100%
気圧1009hPa
METARNSFA 241600Z 14003KT 9999 FEW020 BKN170 25/25 Q1009 RMK NIL
過去の天気等 Google飛行場航空写真 Wunderground天気予報

過去48時間のMETAR

飛行場予報(TAF)
発表時間: 4/25 00:05 WSST (4/24 11:05 UTC)
予報対象時間: 25日1時 WSST ~ 26日1時 WSST
風向・風速不定 2m/s
視程10km以上
天気現象弱いしゅう雨
全天の4割程度の雲 雲底高度 550m
全天の4割程度の雲 雲底高度 1220m
全天の8割程度の雲 雲底高度 3050m
25日1時 WSST ~ 25日9時 WSST に 確率 40% で一時的に
視程5000m
天気現象雷雨
少しの積乱雲 雲底高度 550m
25日13時 WSST ~ 26日1時 WSST に 確率 40% で一時的に
視程3000m
天気現象雷雨
全天の8割程度の雲 雲底高度 460m
少しの積乱雲 雲底高度 550m
TAF NSFA 241105Z 2412/2512 VRB03KT 9999 -SHRA SCT018 SCT040 BKN100
PROB40 TEMPO 2412/2420 5000 TSRA FEW018CB
PROB40 TEMPO 2500/2512 3000 TSRA BKN015 FEW018CB